Time;durP1;ratioP1;P1;durP2;ratioP2;P2;SDS_P1;SDS_P2;PMS_P1;PMS_P2;Temp;Humidity;BMP_temperature;BMP_pressure;BME280_temperature;BME280_humidity;BME280_pressure;Samples;Min_cycle;Max_cycle;Signal;HPM_P1;HPM_P2
2020/12/06 00:01:32;;;;;;;41.77;17.62;;;;;;;6.27;79.42;98484.44;2209681;81;21323;-62
2020/12/06 00:04:34;;;;;;;39.45;16.95;;;;;;;6.26;80.06;98479.67;2209819;81;21733;-63
2020/12/06 00:07:35;;;;;;;38.80;16.73;;;;;;;6.29;79.81;98479.98;2209788;81;21633;-62
2020/12/06 00:10:36;;;;;;;39.13;18.55;;;;;;;6.33;80.10;98478.45;2209908;81;21321;-62
2020/12/06 00:13:37;;;;;;;42.43;18.32;;;;;;;6.33;79.97;98469.34;2209786;81;21282;-62
2020/12/06 00:16:38;;;;;;;39.80;18.73;;;;;;;6.35;79.78;98472.73;2210052;81;21717;-62
2020/12/06 00:19:39;;;;;;;39.67;18.90;;;;;;;6.35;79.78;98473.16;2209654;81;21277;-62
2020/12/06 00:22:40;;;;;;;40.15;17.17;;;;;;;6.34;80.02;98468.89;2209805;81;21276;-62
2020/12/06 00:25:41;;;;;;;38.42;17.30;;;;;;;6.32;80.22;98463.77;2210088;81;21288;-61
2020/12/06 00:28:43;;;;;;;36.88;16.52;;;;;;;6.34;80.59;98452.80;2209820;81;21269;-62
2020/12/06 00:31:44;;;;;;;37.55;17.40;;;;;;;6.36;80.22;98457.45;2210126;81;21695;-62
2020/12/06 00:34:45;;;;;;;38.75;17.95;;;;;;;6.39;79.92;98453.86;2209683;81;21294;-62
2020/12/06 00:37:46;;;;;;;39.27;17.45;;;;;;;6.42;80.05;98455.00;2209767;81;21276;-61
2020/12/06 00:40:47;;;;;;;39.00;18.15;;;;;;;6.44;79.94;98449.72;2209637;81;21308;-62
2020/12/06 00:43:48;;;;;;;38.55;17.80;;;;;;;6.44;80.08;98449.28;2209789;81;21280;-61
2020/12/06 00:46:50;;;;;;;40.12;18.15;;;;;;;6.44;80.08;98451.02;2209963;81;21542;-62
2020/12/06 00:49:52;;;;;;;37.23;16.57;;;;;;;6.46;79.99;98455.71;2209933;81;21590;-61
2020/12/06 00:52:53;;;;;;;36.25;16.17;;;;;;;6.47;80.07;98453.50;2210176;81;21272;-62
2020/12/06 00:55:55;;;;;;;36.45;16.52;;;;;;;6.48;79.99;98462.98;2209699;81;21757;-62
2020/12/06 00:58:56;;;;;;;37.53;17.35;;;;;;;6.49;79.99;98460.30;2209683;81;21325;-61
2020/12/06 01:01:57;;;;;;;37.50;17.85;;;;;;;6.49;80.01;98464.67;2210041;81;21289;-61
2020/12/06 01:04:59;;;;;;;36.15;16.80;;;;;;;6.49;80.04;98468.11;2209785;81;21789;-61
2020/12/06 01:08:00;;;;;;;38.10;17.65;;;;;;;6.47;80.14;98469.97;2210161;80;21317;-61
2020/12/06 01:11:01;;;;;;;35.50;15.95;;;;;;;6.46;80.21;98468.27;2216944;80;21293;-61
2020/12/06 01:14:02;;;;;;;35.20;16.48;;;;;;;6.47;79.83;98479.55;2217123;80;21287;-62
2020/12/06 01:17:03;;;;;;;38.92;18.25;;;;;;;6.46;80.30;98479.99;2216846;80;21258;-62
2020/12/06 01:20:04;;;;;;;38.48;18.23;;;;;;;6.45;80.02;98467.91;2216893;80;21732;-62
2020/12/06 01:23:05;;;;;;;37.75;17.02;;;;;;;6.44;79.93;98467.95;2217322;80;21280;-61
2020/12/06 01:26:06;;;;;;;35.70;15.93;;;;;;;6.41;80.36;98472.88;2216919;80;21316;-62
2020/12/06 01:29:07;;;;;;;33.95;14.65;;;;;;;6.42;80.04;98474.55;2216868;80;21289;-62
2020/12/06 01:32:08;;;;;;;39.13;18.32;;;;;;;6.42;80.19;98481.06;2216952;80;21285;-62
2020/12/06 01:35:10;;;;;;;38.08;16.95;;;;;;;6.43;80.11;98489.27;2217314;80;21273;-62
2020/12/06 01:38:11;;;;;;;35.20;17.40;;;;;;;6.41;80.56;98487.21;2216803;80;21550;-62
2020/12/06 01:41:12;;;;;;;36.17;16.85;;;;;;;6.39;80.16;98492.50;2217438;80;21285;-62
2020/12/06 01:44:13;;;;;;;37.85;16.70;;;;;;;6.38;80.26;98487.37;2188509;80;21268;-62
2020/12/06 01:47:15;;;;;;;36.40;15.78;;;;;;;6.38;80.62;98494.72;2216884;80;21721;-62
2020/12/06 01:50:16;;;;;;;36.50;16.52;;;;;;;6.38;80.49;98493.88;2216924;80;21313;-62
2020/12/06 01:53:17;;;;;;;38.25;17.15;;;;;;;6.39;80.35;98491.64;2216863;80;21253;-62
2020/12/06 01:56:19;;;;;;;36.93;17.37;;;;;;;6.39;80.48;98504.66;2217176;80;21277;-62
2020/12/06 01:59:20;;;;;;;35.92;16.95;;;;;;;6.38;80.59;98504.30;2217160;80;21289;-62
2020/12/06 02:02:21;;;;;;;34.33;15.60;;;;;;;6.36;80.36;98506.95;2216885;80;21281;-62
2020/12/06 02:05:22;;;;;;;35.88;16.20;;;;;;;6.36;80.37;98514.77;2216782;80;21273;-62
2020/12/06 02:08:23;;;;;;;36.08;17.17;;;;;;;6.36;80.35;98512.63;2216675;80;21737;-62
2020/12/06 02:11:24;;;;;;;37.48;17.00;;;;;;;6.33;80.42;98508.41;2216786;80;21281;-62
2020/12/06 02:14:26;;;;;;;36.83;16.32;;;;;;;6.30;80.47;98504.66;2217070;80;21296;-62
2020/12/06 02:17:27;;;;;;;36.30;17.00;;;;;;;6.30;80.58;98503.82;2217045;80;21300;-62
2020/12/06 02:20:28;;;;;;;35.20;15.30;;;;;;;6.27;80.53;98503.98;2216996;80;21309;-62
2020/12/06 02:23:29;;;;;;;35.40;16.07;;;;;;;6.27;80.73;98501.38;2216776;80;21716;-62
2020/12/06 02:26:30;;;;;;;34.33;15.58;;;;;;;6.27;81.00;98503.98;2217272;80;21264;-62
2020/12/06 02:29:32;;;;;;;34.90;17.07;;;;;;;6.28;80.87;98503.03;2217279;80;21289;-62
2020/12/06 02:32:33;;;;;;;37.90;16.73;;;;;;;6.29;80.64;98492.54;2217056;80;21269;-62
2020/12/06 02:35:34;;;;;;;35.40;15.98;;;;;;;6.28;80.45;98486.11;2217471;80;21276;-63
2020/12/06 02:38:35;;;;;;;36.63;16.02;;;;;;;6.23;80.97;98485.89;2217080;80;21583;-62
2020/12/06 02:41:36;;;;;;;33.08;15.15;;;;;;;6.19;80.92;98490.87;2217076;80;21752;-62
2020/12/06 02:44:37;;;;;;;34.63;15.88;;;;;;;6.17;80.92;98487.48;2217388;80;21292;-62
2020/12/06 02:47:39;;;;;;;35.50;16.00;;;;;;;6.16;80.90;98492.33;2217058;80;21284;-62
2020/12/06 02:50:40;;;;;;;38.90;17.02;;;;;;;6.18;80.75;98498.76;2217082;80;21276;-62
2020/12/06 02:53:41;;;;;;;35.08;16.87;;;;;;;6.15;80.98;98487.16;2217460;80;21276;-62
2020/12/06 02:56:42;;;;;;;37.00;16.62;;;;;;;6.12;80.95;98491.22;2217217;80;21256;-62
2020/12/06 02:59:44;;;;;;;35.80;15.40;;;;;;;6.08;80.84;98490.53;2217036;80;21706;-62
2020/12/06 03:02:45;;;;;;;37.40;16.50;;;;;;;6.07;80.89;98503.99;2217600;80;21547;-62
2020/12/06 03:05:46;;;;;;;36.70;16.07;;;;;;;6.06;81.18;98496.26;2217072;80;21308;-62
2020/12/06 03:08:47;;;;;;;36.68;16.85;;;;;;;6.04;81.08;98504.14;2217275;80;21312;-62
2020/12/06 03:11:48;;;;;;;37.28;17.82;;;;;;;6.03;81.29;98500.31;2220526;80;21713;-62
2020/12/06 03:14:49;;;;;;;36.70;16.42;;;;;;;5.99;81.35;98507.45;2220995;80;21280;-62
2020/12/06 03:17:50;;;;;;;35.92;16.02;;;;;;;5.94;81.41;98499.43;2220461;80;21284;-62
2020/12/06 03:20:52;;;;;;;35.73;15.35;;;;;;;5.93;81.39;98497.27;2220323;80;21281;-61
2020/12/06 03:23:53;;;;;;;34.25;15.05;;;;;;;5.90;81.49;98494.38;2220490;80;21305;-62
2020/12/06 03:26:54;;;;;;;33.98;15.85;;;;;;;5.90;81.47;98502.19;2220485;80;21720;-62
2020/12/06 03:29:55;;;;;;;34.48;16.15;;;;;;;5.87;81.62;98494.49;2220612;80;21550;-62
2020/12/06 03:32:56;;;;;;;32.35;15.15;;;;;;;5.87;81.52;98499.70;2220347;80;21744;-62
2020/12/06 03:35:57;;;;;;;33.15;15.30;;;;;;;5.83;81.77;98501.22;2220352;80;21285;-62
2020/12/06 03:38:58;;;;;;;34.80;15.03;;;;;;;5.79;81.37;98497.07;2220797;80;21272;-62
2020/12/06 03:41:59;;;;;;;31.90;13.68;;;;;;;5.78;81.63;98499.31;2220378;80;21288;-62
2020/12/06 03:45:01;;;;;;;34.85;14.98;;;;;;;5.76;81.99;98497.22;2220329;80;21655;-62
2020/12/06 03:48:02;;;;;;;35.55;15.45;;;;;;;5.74;81.71;98493.39;2220385;80;21288;-62
2020/12/06 03:51:03;;;;;;;34.67;15.25;;;;;;;5.71;81.73;98489.63;2220469;80;21277;-62
2020/12/06 03:54:04;;;;;;;36.00;16.85;;;;;;;5.69;82.19;98494.08;2220333;80;21150;-61
2020/12/06 03:57:05;;;;;;;33.50;15.38;;;;;;;5.67;82.08;98498.02;2220317;80;21153;-62
2020/12/06 04:00:06;;;;;;;35.00;14.83;;;;;;;5.64;81.88;98502.54;2220307;80;21309;-62
2020/12/06 04:03:07;;;;;;;33.83;14.90;;;;;;;5.63;82.55;98503.02;2220347;80;21304;-62
2020/12/06 04:06:08;;;;;;;32.40;14.47;;;;;;;5.62;82.46;98493.98;2220593;80;21700;-62
2020/12/06 04:09:10;;;;;;;33.98;14.80;;;;;;;5.62;82.13;98500.48;2219765;80;21131;-62
2020/12/06 04:12:11;;;;;;;33.05;14.58;;;;;;;5.63;81.99;98495.20;2216978;80;21281;-62
2020/12/06 04:15:12;;;;;;;34.08;15.85;;;;;;;5.62;82.07;98503.08;2217023;80;21717;-62
2020/12/06 04:18:13;;;;;;;34.15;15.48;;;;;;;5.59;82.26;98497.55;2216886;80;21253;-62
2020/12/06 04:21:14;;;;;;;33.65;14.83;;;;;;;5.55;82.22;98499.44;2188302;80;21724;-62
2020/12/06 04:24:15;;;;;;;33.10;14.75;;;;;;;5.54;82.37;98505.55;2217141;80;21588;-62
2020/12/06 04:27:16;;;;;;;34.05;14.50;;;;;;;5.51;82.11;98511.36;2216951;80;21627;-62
2020/12/06 04:30:18;;;;;;;35.45;16.35;;;;;;;5.49;82.22;98511.90;2217353;80;21312;-62
2020/12/06 04:33:19;;;;;;;34.05;16.50;;;;;;;5.49;82.30;98510.60;2216990;80;21280;-62
2020/12/06 04:36:21;;;;;;;34.15;15.30;;;;;;;5.45;82.86;98510.34;2217173;80;21717;-62
2020/12/06 04:39:22;;;;;;;33.10;15.03;;;;;;;5.43;82.71;98511.72;2216785;80;21304;-62
2020/12/06 04:42:23;;;;;;;32.98;14.65;;;;;;;5.40;82.63;98514.43;2216962;80;21265;-62
2020/12/06 04:45:24;;;;;;;35.15;15.28;;;;;;;5.36;83.29;98513.73;2217013;80;21724;-62
2020/12/06 04:48:25;;;;;;;34.45;14.93;;;;;;;5.36;82.63;98510.31;2217336;80;21269;-62
2020/12/06 04:51:26;;;;;;;35.20;15.18;;;;;;;5.34;82.49;98518.18;2216982;80;21277;-62
2020/12/06 04:54:28;;;;;;;31.68;13.48;;;;;;;5.31;82.84;98515.69;2188277;80;21110;-62
2020/12/06 04:57:29;;;;;;;36.17;15.80;;;;;;;5.28;83.31;98514.53;2216837;80;21725;-62
2020/12/06 05:00:34;;;;;;;35.05;15.10;;;;;;;5.24;82.86;98518.17;2216800;80;21293;-62
2020/12/06 05:03:35;;;;;;;32.73;14.10;;;;;;;5.20;83.20;98527.88;2216786;80;21260;-63
2020/12/06 05:06:36;;;;;;;34.98;15.30;;;;;;;5.19;83.19;98524.05;2216855;80;21741;-62
2020/12/06 05:09:37;;;;;;;32.93;14.80;;;;;;;5.16;83.23;98535.89;2215589;80;21111;-62
2020/12/06 05:12:38;;;;;;;33.38;14.93;;;;;;;5.16;82.81;98533.29;2209941;81;21700;-62
2020/12/06 05:15:39;;;;;;;34.03;16.07;;;;;;;5.14;83.29;98527.30;2209626;81;21296;-62
2020/12/06 05:18:41;;;;;;;36.25;16.05;;;;;;;5.12;83.62;98531.27;2209603;81;21273;-62
2020/12/06 05:21:42;;;;;;;35.23;15.75;;;;;;;5.09;83.87;98527.97;2210033;81;21278;-62
2020/12/06 05:24:43;;;;;;;34.83;15.90;;;;;;;5.06;83.53;98530.67;2209631;81;21285;-62
2020/12/06 05:27:44;;;;;;;36.42;15.23;;;;;;;5.04;83.33;98530.73;2209778;81;21268;-62
2020/12/06 05:30:46;;;;;;;36.23;15.88;;;;;;;5.01;83.64;98521.34;2209745;81;21713;-62
2020/12/06 05:33:47;;;;;;;34.78;14.87;;;;;;;4.99;83.41;98527.05;2209649;81;21309;-61
2020/12/06 05:36:48;;;;;;;34.75;15.68;;;;;;;4.98;83.78;98526.65;2209653;81;21294;-62
2020/12/06 05:39:49;;;;;;;38.37;17.57;;;;;;;4.98;84.24;98531.84;2210075;81;21154;-62
2020/12/06 05:42:51;;;;;;;36.13;16.65;;;;;;;4.95;84.34;98523.35;2209620;81;21285;-61
2020/12/06 05:45:52;;;;;;;36.53;15.78;;;;;;;4.91;84.27;98518.73;2187671;81;21257;-62
2020/12/06 05:48:53;;;;;;;34.92;16.20;;;;;;;4.89;84.22;98531.42;2209697;81;21721;-62
2020/12/06 05:51:54;;;;;;;35.30;15.70;;;;;;;4.85;83.85;98530.22;2209892;81;21265;-62
2020/12/06 05:54:56;;;;;;;36.13;16.23;;;;;;;4.85;84.23;98530.22;2210497;81;21300;-62
2020/12/06 05:57:57;;;;;;;36.15;16.65;;;;;;;4.87;84.53;98532.79;2209792;81;21713;-62
2020/12/06 06:00:58;;;;;;;38.55;17.23;;;;;;;4.86;84.20;98525.89;2209690;81;21272;-62
2020/12/06 06:03:59;;;;;;;36.58;16.80;;;;;;;4.86;84.41;98534.98;2209743;81;21281;-62
2020/12/06 06:07:00;;;;;;;35.68;16.87;;;;;;;4.83;84.46;98542.45;2209679;81;21273;-61
2020/12/06 06:10:01;;;;;;;36.68;15.25;;;;;;;4.83;84.61;98542.45;2211162;80;21280;-62
2020/12/06 06:13:02;;;;;;;35.13;16.10;;;;;;;4.83;84.96;98541.62;2188352;80;21253;-62
2020/12/06 06:16:03;;;;;;;33.42;14.90;;;;;;;4.83;84.49;98538.55;2216885;80;21745;-62
2020/12/06 06:19:05;;;;;;;35.58;15.90;;;;;;;4.83;84.41;98546.35;2216858;80;21304;-62
2020/12/06 06:22:06;;;;;;;36.05;17.07;;;;;;;4.84;84.29;98548.05;2216870;80;21292;-62
2020/12/06 06:25:07;;;;;;;35.68;16.62;;;;;;;4.84;84.52;98551.08;2188324;80;21719;-62
2020/12/06 06:28:09;;;;;;;38.70;16.70;;;;;;;4.85;84.85;98546.28;2216904;80;21293;-62
2020/12/06 06:31:10;;;;;;;36.13;15.65;;;;;;;4.83;84.60;98546.81;2216758;80;21733;-62
2020/12/06 06:34:11;;;;;;;34.58;15.85;;;;;;;4.81;84.88;98543.42;2217315;80;21288;-62
2020/12/06 06:37:13;;;;;;;35.05;15.65;;;;;;;4.82;85.05;98555.05;2217285;80;21301;-61
2020/12/06 06:40:14;;;;;;;36.70;15.63;;;;;;;4.84;84.41;98541.98;2217261;80;21293;-62
2020/12/06 06:43:16;;;;;;;37.48;16.05;;;;;;;4.86;84.43;98550.58;2217209;80;21724;-62
2020/12/06 06:46:17;;;;;;;36.15;15.48;;;;;;;4.89;84.40;98549.15;2216887;80;21705;-62
2020/12/06 06:49:18;;;;;;;36.40;15.88;;;;;;;4.94;84.40;98551.55;2217166;80;21277;-62
2020/12/06 06:52:19;;;;;;;36.77;16.90;;;;;;;4.97;84.46;98550.97;2217081;80;21280;-62
2020/12/06 06:55:20;;;;;;;35.85;16.27;;;;;;;4.99;84.50;98548.31;2216862;80;21729;-62
2020/12/06 06:58:22;;;;;;;35.52;15.18;;;;;;;5.01;84.15;98561.64;2216718;80;21610;-62
2020/12/06 07:01:23;;;;;;;36.13;15.58;;;;;;;5.05;84.46;98562.80;2216767;80;21305;-62
2020/12/06 07:04:24;;;;;;;36.58;14.70;;;;;;;5.11;84.35;98562.06;2216889;80;21276;-62
2020/12/06 07:07:25;;;;;;;35.48;15.08;;;;;;;5.19;84.00;98565.66;2216731;80;21597;-62
2020/12/06 07:10:27;;;;;;;34.92;16.05;;;;;;;5.27;83.87;98560.97;2214906;80;21280;-62
2020/12/06 07:13:28;;;;;;;36.73;15.50;;;;;;;5.34;83.56;98546.79;2209735;81;21274;-61
2020/12/06 07:16:30;;;;;;;34.18;14.68;;;;;;;5.42;83.44;98542.53;2209692;81;21276;-62
2020/12/06 07:19:31;;;;;;;35.13;14.78;;;;;;;5.45;83.34;98541.09;2210158;81;21269;-62
2020/12/06 07:22:32;;;;;;;33.48;14.23;;;;;;;5.51;83.06;98543.41;2209701;81;21244;-62
2020/12/06 07:25:33;;;;;;;33.38;14.68;;;;;;;5.59;82.94;98529.21;2209767;81;21277;-62
2020/12/06 07:28:35;;;;;;;33.53;15.00;;;;;;;5.68;82.71;98535.32;2209835;81;21713;-62
2020/12/06 07:31:36;;;;;;;33.85;15.08;;;;;;;5.77;82.43;98533.58;2210259;81;21321;-62
2020/12/06 07:34:37;;;;;;;32.90;14.98;;;;;;;5.87;82.18;98540.52;2209741;81;21284;-62
2020/12/06 07:37:38;;;;;;;34.10;15.08;;;;;;;5.96;81.96;98541.41;2209697;80;21326;-62
2020/12/06 07:40:39;;;;;;;31.87;13.58;;;;;;;6.05;81.52;98540.16;2210097;81;21752;-62
2020/12/06 07:43:41;;;;;;;32.95;13.53;;;;;;;6.16;81.53;98546.15;2210249;81;21272;-61
2020/12/06 07:46:42;;;;;;;30.82;13.05;;;;;;;6.28;80.92;98546.02;2210230;81;21147;-62
2020/12/06 07:49:43;;;;;;;30.43;13.50;;;;;;;6.40;80.86;98555.86;2210195;81;21281;-62
2020/12/06 07:52:44;;;;;;;31.07;13.10;;;;;;;6.52;80.49;98561.79;2209838;81;21308;-62
2020/12/06 07:55:46;;;;;;;33.40;14.43;;;;;;;6.66;79.90;98566.78;2209808;81;21760;-62
2020/12/06 07:58:48;;;;;;;32.33;13.58;;;;;;;6.80;80.05;98573.45;2210466;81;21321;-62
2020/12/06 08:01:49;;;;;;;31.33;12.88;;;;;;;6.90;79.19;98569.47;2209790;81;21269;-62
2020/12/06 08:04:50;;;;;;;30.25;12.93;;;;;;;6.98;79.28;98563.86;2187887;81;21253;-62
2020/12/06 08:07:52;;;;;;;31.33;13.50;;;;;;;7.09;79.35;98575.89;2209913;81;21745;-62
2020/12/06 08:10:53;;;;;;;31.57;13.50;;;;;;;7.20;78.52;98562.79;2209755;80;21437;-62
2020/12/06 08:13:54;;;;;;;30.43;13.18;;;;;;;7.30;77.31;98561.39;2209725;81;21301;-62
2020/12/06 08:16:55;;;;;;;29.98;12.73;;;;;;;7.39;78.53;98555.68;2210048;81;21348;-62
2020/12/06 08:19:56;;;;;;;31.65;13.53;;;;;;;7.43;77.28;98557.69;2209790;81;21776;-62
2020/12/06 08:22:57;;;;;;;28.95;12.30;;;;;;;7.46;77.17;98565.34;2210215;81;21284;-62
2020/12/06 08:25:59;;;;;;;28.40;12.53;;;;;;;7.46;77.09;98564.04;2209861;81;21269;-62
2020/12/06 08:29:00;;;;;;;29.15;12.28;;;;;;;7.52;77.36;98566.80;2209804;81;21739;-62
2020/12/06 08:32:01;;;;;;;28.20;12.18;;;;;;;7.50;76.81;98564.70;2209691;81;21285;-62
2020/12/06 08:35:05;;;;;;;28.10;12.10;;;;;;;7.50;77.36;98561.66;2209720;81;21265;-62
2020/12/06 08:38:07;;;;;;;29.60;11.38;;;;;;;7.55;76.80;98568.77;2210126;81;21095;-62
2020/12/06 08:41:08;;;;;;;27.95;11.40;;;;;;;7.62;76.36;98576.66;2209741;81;21709;-62
2020/12/06 08:44:09;;;;;;;27.00;10.72;;;;;;;7.68;76.44;98576.79;2210194;81;21301;-62
2020/12/06 08:47:11;;;;;;;26.93;11.10;;;;;;;8.00;76.04;98571.59;2209904;81;21317;-62
2020/12/06 08:50:12;;;;;;;27.22;11.15;;;;;;;8.00;76.04;98571.59;2209915;81;21277;-62
2020/12/06 08:53:13;;;;;;;27.02;11.50;;;;;;;8.27;75.31;98575.77;2187867;81;21701;-62
2020/12/06 08:56:14;;;;;;;28.47;11.68;;;;;;;8.37;73.69;98573.97;2209670;81;21269;-62
2020/12/06 08:59:15;;;;;;;29.02;12.07;;;;;;;8.39;73.88;98572.09;2209609;81;21344;-62
2020/12/06 09:02:17;;;;;;;27.15;11.03;;;;;;;8.39;74.38;98566.42;2209907;81;21293;-62
2020/12/06 09:05:18;;;;;;;26.27;10.68;;;;;;;8.45;74.05;98563.97;2187765;81;21717;-62
2020/12/06 09:08:19;;;;;;;26.35;11.25;;;;;;;8.57;73.14;98562.42;2210105;81;21292;-62
2020/12/06 09:11:21;;;;;;;27.75;11.12;;;;;;;8.67;72.32;98561.79;2209685;80;21262;-62
2020/12/06 09:14:22;;;;;;;28.80;12.07;;;;;;;8.77;72.78;98561.27;2210162;81;21277;-62
2020/12/06 09:17:23;;;;;;;25.62;11.10;;;;;;;8.81;73.12;98561.00;2209612;81;21297;-62
2020/12/06 09:20:25;;;;;;;27.02;11.43;;;;;;;8.87;72.92;98554.58;2187826;81;21698;-62
2020/12/06 09:23:26;;;;;;;26.95;11.48;;;;;;;8.95;71.79;98551.05;2210203;81;21293;-63
2020/12/06 09:26:27;;;;;;;28.42;12.13;;;;;;;8.86;71.52;98548.95;2209800;81;21284;-63
2020/12/06 09:29:28;;;;;;;25.88;10.78;;;;;;;8.89;72.16;98550.56;2209978;81;21689;-62
2020/12/06 09:32:29;;;;;;;26.10;10.80;;;;;;;8.95;72.63;98547.58;2187641;81;21593;-63
2020/12/06 09:35:31;;;;;;;27.70;11.37;;;;;;;8.97;70.92;98549.17;2210258;81;21681;-63
2020/12/06 09:38:32;;;;;;;28.15;11.80;;;;;;;8.92;71.29;98536.85;2209691;81;21621;-62
2020/12/06 09:41:33;;;;;;;26.60;11.45;;;;;;;8.97;71.35;98537.41;2187448;81;21293;-63
2020/12/06 09:44:34;;;;;;;24.20;10.38;;;;;;;9.10;72.33;98524.44;2209651;81;21281;-63
2020/12/06 09:47:36;;;;;;;26.17;10.95;;;;;;;9.17;70.90;98527.06;2209710;81;21305;-63
2020/12/06 09:50:37;;;;;;;25.43;10.43;;;;;;;9.27;70.79;98522.60;2209633;81;21284;-63
2020/12/06 09:53:38;;;;;;;24.70;10.18;;;;;;;9.34;71.41;98516.06;2210150;81;21261;-63
2020/12/06 09:56:40;;;;;;;24.30;9.83;;;;;;;9.46;71.99;98519.70;2209820;81;21277;-62
2020/12/06 09:59:41;;;;;;;24.63;10.45;;;;;;;9.59;70.08;98510.62;2209699;81;21760;-63
2020/12/06 10:02:43;;;;;;;24.90;11.33;;;;;;;9.66;71.01;98504.06;2209346;81;21111;-62
2020/12/06 10:05:45;;;;;;;25.00;10.43;;;;;;;9.70;70.12;98505.08;2209837;81;21724;-62
2020/12/06 10:08:52;;;;;;;23.12;9.98;;;;;;;9.75;69.68;98497.41;2209607;81;21289;-63
2020/12/06 10:11:53;;;;;;;24.35;9.75;;;;;;;9.80;69.23;98505.35;2209935;81;21316;-63
2020/12/06 10:14:54;;;;;;;25.75;10.65;;;;;;;9.79;68.99;98496.28;2209634;81;21281;-63
2020/12/06 10:17:55;;;;;;;23.50;10.13;;;;;;;9.76;69.71;98488.62;2187749;81;21281;-63
2020/12/06 10:20:56;;;;;;;26.42;10.50;;;;;;;9.79;69.80;98487.11;2209560;81;21321;-62
2020/12/06 10:23:58;;;;;;;26.23;10.25;;;;;;;9.81;69.47;98479.98;2187871;81;21725;-63
2020/12/06 10:26:59;;;;;;;23.22;9.15;;;;;;;9.86;68.92;98476.63;2209799;81;21268;-63
2020/12/06 10:30:00;;;;;;;27.30;10.13;;;;;;;9.83;68.56;98462.41;2209582;81;21281;-63
2020/12/06 10:33:01;;;;;;;24.70;9.75;;;;;;;9.86;67.71;98452.56;2209544;81;21256;-63
2020/12/06 10:36:02;;;;;;;25.32;10.28;;;;;;;9.82;67.73;98460.24;2209751;81;21736;-63
2020/12/06 10:39:04;;;;;;;24.20;10.50;;;;;;;9.79;67.84;98449.14;2187696;81;21575;-63
2020/12/06 10:42:05;;;;;;;24.87;10.63;;;;;;;9.67;67.88;98450.28;2209565;81;21278;-63
2020/12/06 10:45:06;;;;;;;23.32;9.43;;;;;;;9.60;68.85;98459.46;2209576;81;21313;-62
2020/12/06 10:48:08;;;;;;;22.85;9.43;;;;;;;9.58;68.40;98458.70;2210036;81;21269;-62
2020/12/06 10:51:09;;;;;;;24.32;9.60;;;;;;;9.53;68.01;98452.45;2209591;80;21622;-63
2020/12/06 10:54:10;;;;;;;24.77;9.30;;;;;;;9.57;69.31;98453.11;2210318;81;21308;-62
2020/12/06 10:57:11;;;;;;;25.55;9.60;;;;;;;9.63;68.13;98457.12;2210006;81;21718;-63
2020/12/06 11:00:12;;;;;;;23.85;9.78;;;;;;;9.61;69.24;98455.92;2210043;80;21329;-63
2020/12/06 11:03:13;;;;;;;23.75;9.68;;;;;;;9.67;69.03;98446.83;2209754;81;21313;-63
2020/12/06 11:06:14;;;;;;;23.38;9.90;;;;;;;9.70;68.45;98438.30;2210057;81;21723;-63
2020/12/06 11:09:15;;;;;;;24.27;9.78;;;;;;;9.66;68.21;98417.65;2209778;81;21300;-63
2020/12/06 11:12:17;;;;;;;25.20;9.88;;;;;;;9.62;68.75;98435.80;2187509;81;21280;-63
2020/12/06 11:15:18;;;;;;;24.27;10.20;;;;;;;9.62;68.17;98436.63;2209885;81;21285;-63
2020/12/06 11:18:19;;;;;;;24.63;9.53;;;;;;;9.63;68.02;98438.31;2209728;81;21289;-63
2020/12/06 11:21:21;;;;;;;26.10;10.10;;;;;;;9.67;68.41;98438.98;2210524;81;21115;-63
2020/12/06 11:24:22;;;;;;;25.17;10.18;;;;;;;9.69;68.15;98430.06;2209900;81;21305;-63
2020/12/06 11:27:23;;;;;;;24.02;9.35;;;;;;;9.71;68.54;98433.89;2209791;81;21286;-64
2020/12/06 11:30:24;;;;;;;21.97;9.38;;;;;;;9.67;67.37;98435.88;2210179;81;21134;-62
2020/12/06 11:33:26;;;;;;;24.43;10.00;;;;;;;9.75;68.08;98438.00;2209862;81;21733;-62
2020/12/06 11:36:27;;;;;;;22.90;9.55;;;;;;;9.87;68.13;98436.39;2209950;81;21701;-63
2020/12/06 11:39:28;;;;;;;24.90;10.13;;;;;;;9.91;67.98;98439.64;2209998;81;21748;-62
2020/12/06 11:42:30;;;;;;;23.07;9.05;;;;;;;9.96;67.15;98438.89;2210099;81;21317;-63
2020/12/06 11:45:31;;;;;;;23.90;9.33;;;;;;;9.92;66.30;98444.78;2210001;81;21276;-63
2020/12/06 11:48:32;;;;;;;24.30;9.63;;;;;;;9.96;67.25;98442.82;2209855;80;21689;-63
2020/12/06 11:51:33;;;;;;;22.85;9.68;;;;;;;9.96;67.20;98439.72;2210197;80;21293;-62
2020/12/06 11:54:35;;;;;;;23.38;9.80;;;;;;;9.95;66.58;98435.89;2209725;80;21266;-63
2020/12/06 11:57:36;;;;;;;23.45;9.43;;;;;;;9.86;66.13;98445.19;2210006;81;21305;-62
2020/12/06 12:00:37;;;;;;;23.45;9.68;;;;;;;9.81;66.15;98444.63;2210173;80;21296;-63
2020/12/06 12:03:39;;;;;;;24.02;9.63;;;;;;;9.76;66.90;98444.09;2209728;81;21721;-63
2020/12/06 12:06:40;;;;;;;22.55;9.15;;;;;;;9.75;67.15;98436.69;2209930;80;21578;-63
2020/12/06 12:09:41;;;;;;;23.75;9.23;;;;;;;9.76;66.93;98428.38;2209862;81;21243;-62
2020/12/06 12:12:42;;;;;;;22.82;8.85;;;;;;;9.71;66.89;98432.13;2215233;80;21281;-63
2020/12/06 12:15:44;;;;;;;23.10;8.50;;;;;;;9.73;66.92;98417.63;2220324;80;21166;-63
2020/12/06 12:18:45;;;;;;;23.95;8.98;;;;;;;9.72;66.79;98419.87;2220422;80;21713;-63
2020/12/06 12:21:46;;;;;;;24.85;9.50;;;;;;;9.77;67.13;98422.19;2220957;80;21305;-63
2020/12/06 12:24:48;;;;;;;23.60;8.78;;;;;;;9.90;66.66;98419.17;2220400;80;21170;-63
2020/12/06 12:27:49;;;;;;;24.52;8.98;;;;;;;9.86;65.87;98411.96;2220416;80;21284;-63
2020/12/06 12:30:50;;;;;;;22.67;8.55;;;;;;;9.80;65.79;98408.44;2220427;80;21312;-63
2020/12/06 12:33:51;;;;;;;22.98;8.58;;;;;;;9.75;66.23;98397.88;2191601;80;21280;-62
2020/12/06 12:36:52;;;;;;;23.73;8.65;;;;;;;9.71;65.46;98395.47;2220785;80;21301;-63
2020/12/06 12:39:55;;;;;;;23.18;8.73;;;;;;;9.70;66.54;98392.95;2220899;80;21276;-63
2020/12/06 12:42:56;;;;;;;23.50;9.05;;;;;;;9.64;66.57;98394.18;2220291;80;21182;-63
2020/12/06 12:45:57;;;;;;;25.12;9.85;;;;;;;9.56;66.18;98383.34;2220567;80;21688;-63
2020/12/06 12:48:58;;;;;;;24.18;9.70;;;;;;;9.45;66.22;98384.05;2220680;80;21284;-63
2020/12/06 12:52:00;;;;;;;23.83;9.25;;;;;;;9.32;66.30;98387.05;2220384;80;21297;-63
2020/12/06 12:55:01;;;;;;;23.47;9.13;;;;;;;9.21;66.38;98393.41;2221082;80;21686;-63
2020/12/06 12:58:02;;;;;;;22.67;8.85;;;;;;;9.07;66.78;98392.50;2220562;80;21269;-63
2020/12/06 13:01:04;;;;;;;22.73;9.08;;;;;;;9.01;66.96;98395.03;2220385;80;21276;-63
2020/12/06 13:04:05;;;;;;;24.50;9.48;;;;;;;8.96;66.69;98394.94;2220815;80;21269;-63
2020/12/06 13:07:07;;;;;;;23.95;9.55;;;;;;;8.86;66.81;98400.36;2220535;80;21733;-63
2020/12/06 13:10:09;;;;;;;22.10;8.50;;;;;;;8.74;67.10;98395.41;2220755;80;21272;-63
2020/12/06 13:13:10;;;;;;;23.92;9.45;;;;;;;8.58;67.50;98393.71;2218524;80;21296;-63
2020/12/06 13:16:11;;;;;;;26.20;8.75;;;;;;;8.51;67.86;98396.80;2216763;80;21138;-63
2020/12/06 13:19:12;;;;;;;22.17;8.70;;;;;;;8.40;67.40;98398.69;2217105;80;21292;-63
2020/12/06 13:22:13;;;;;;;22.65;7.72;;;;;;;8.30;67.60;98397.07;2217205;80;21305;-63
2020/12/06 13:25:15;;;;;;;22.13;8.10;;;;;;;8.17;67.76;98406.09;2217209;80;21268;-63
2020/12/06 13:28:16;;;;;;;22.95;8.48;;;;;;;8.05;68.07;98418.09;2216910;80;21743;-63
2020/12/06 13:31:18;;;;;;;23.65;8.98;;;;;;;7.96;68.29;98407.70;2217329;80;21269;-63
2020/12/06 13:34:19;;;;;;;24.85;8.85;;;;;;;7.90;68.44;98406.76;2217441;80;21280;-63
2020/12/06 13:37:20;;;;;;;24.15;9.28;;;;;;;7.82;68.66;98402.91;2216874;80;21170;-63
2020/12/06 13:40:22;;;;;;;27.73;8.70;;;;;;;7.71;68.78;98408.23;2217434;80;21317;-63
2020/12/06 13:43:23;;;;;;;23.77;9.13;;;;;;;7.58;68.92;98417.21;2216807;80;22442;-63
2020/12/06 13:46:25;;;;;;;23.32;8.18;;;;;;;7.43;69.17;98425.91;2188248;80;21328;-63
2020/12/06 13:49:27;;;;;;;23.80;8.78;;;;;;;7.33;69.26;98423.42;2217346;80;21297;-62
2020/12/06 13:52:28;;;;;;;22.70;8.75;;;;;;;7.23;69.45;98429.11;2216957;80;21292;-63
2020/12/06 13:55:30;;;;;;;23.80;8.67;;;;;;;7.15;69.59;98426.06;2217283;80;21717;-63
2020/12/06 13:58:32;;;;;;;24.02;9.15;;;;;;;7.00;69.79;98437.33;2217419;80;21296;-63
2020/12/06 14:01:33;;;;;;;23.87;9.60;;;;;;;6.91;70.09;98441.23;2216751;80;21134;-62
2020/12/06 14:04:34;;;;;;;24.45;8.98;;;;;;;6.80;70.34;98440.50;2216902;80;21728;-62